createdAt,value
2023-08-03T00:01:11.408Z,18.92
2023-08-03T00:04:01.811Z,18.91
2023-08-03T00:06:49.018Z,18.87
2023-08-03T00:09:35.855Z,18.88
2023-08-03T00:12:23.293Z,18.86
2023-08-03T00:15:10.651Z,18.86
2023-08-03T00:17:57.584Z,18.84
2023-08-03T00:20:44.499Z,18.81
2023-08-03T00:23:31.819Z,18.80
2023-08-03T00:26:18.699Z,18.80
2023-08-03T00:29:05.701Z,18.78
2023-08-03T00:31:52.590Z,18.74
2023-08-03T00:34:39.510Z,18.72
2023-08-03T00:37:26.406Z,18.68
2023-08-03T00:40:13.577Z,18.66
2023-08-03T00:43:00.487Z,18.64
2023-08-03T00:45:47.508Z,18.62
2023-08-03T00:48:34.372Z,18.60
2023-08-03T00:51:21.192Z,18.59
2023-08-03T00:54:08.611Z,18.58
2023-08-03T00:56:55.755Z,18.59
2023-08-03T00:59:44.460Z,18.58
2023-08-03T01:02:31.920Z,18.56
2023-08-03T01:05:18.942Z,18.52
2023-08-03T01:08:05.832Z,18.48
2023-08-03T01:10:53.082Z,18.47
2023-08-03T01:13:40.062Z,18.46
2023-08-03T01:16:28.185Z,18.45
2023-08-03T01:19:15.265Z,18.44
2023-08-03T01:22:03.286Z,18.42
2023-08-03T01:24:50.252Z,18.42
2023-08-03T01:27:37.260Z,18.39
2023-08-03T01:30:24.477Z,18.35
2023-08-03T01:33:11.727Z,18.34
2023-08-03T01:35:59.325Z,18.34
2023-08-03T01:38:54.214Z,18.35
2023-08-03T01:41:42.672Z,18.37
2023-08-03T01:44:30.297Z,18.34
2023-08-03T01:47:17.168Z,18.29
2023-08-03T01:50:04.451Z,18.25
2023-08-03T01:52:51.330Z,18.21
2023-08-03T01:55:38.290Z,18.19
2023-08-03T01:58:25.137Z,18.17
2023-08-03T02:01:12.075Z,18.17
2023-08-03T02:03:58.993Z,18.15
2023-08-03T02:06:50.437Z,18.15
2023-08-03T02:09:37.290Z,18.14
2023-08-03T02:12:24.107Z,18.14
2023-08-03T02:15:11.346Z,18.14
2023-08-03T02:17:58.319Z,18.12
2023-08-03T02:20:45.214Z,18.11
2023-08-03T02:23:32.557Z,18.11
2023-08-03T02:26:19.375Z,18.10
2023-08-03T02:29:06.241Z,18.09
2023-08-03T02:31:53.095Z,18.08
2023-08-03T02:34:39.941Z,18.06
2023-08-03T02:37:26.780Z,18.04
2023-08-03T02:40:13.625Z,18.06
2023-08-03T02:43:00.543Z,18.04
2023-08-03T02:45:47.415Z,18.03
2023-08-03T02:48:34.334Z,18.03
2023-08-03T02:51:21.154Z,18.00
2023-08-03T02:54:08.018Z,17.99
2023-08-03T02:56:54.872Z,17.96
2023-08-03T02:59:41.746Z,17.94
2023-08-03T03:02:28.748Z,17.91
2023-08-03T03:05:15.904Z,17.87
2023-08-03T03:08:02.859Z,17.83
2023-08-03T03:10:49.701Z,17.82
2023-08-03T03:13:36.595Z,17.81
2023-08-03T03:16:26.876Z,17.79
2023-08-03T03:19:14.063Z,17.76
2023-08-03T03:22:00.928Z,17.74
2023-08-03T03:24:47.803Z,17.75
2023-08-03T03:27:34.664Z,17.73
2023-08-03T03:30:21.550Z,17.73
2023-08-03T03:33:08.529Z,17.71
2023-08-03T03:35:55.417Z,17.70
2023-08-03T03:38:42.296Z,17.70
2023-08-03T03:41:29.107Z,17.69
2023-08-03T03:44:15.978Z,17.69
2023-08-03T03:47:02.938Z,17.69
2023-08-03T03:49:49.865Z,17.66
2023-08-03T03:52:36.825Z,17.64
2023-08-03T03:55:23.998Z,17.65
2023-08-03T03:58:10.910Z,17.64
2023-08-03T04:00:57.805Z,17.62
2023-08-03T04:03:44.748Z,17.61
2023-08-03T04:06:32.437Z,17.59
2023-08-03T04:09:19.284Z,17.58
2023-08-03T04:12:06.379Z,17.56
2023-08-03T04:14:53.306Z,17.56
2023-08-03T04:17:40.447Z,17.56
2023-08-03T04:20:27.384Z,17.54
2023-08-03T04:23:14.232Z,17.54
2023-08-03T04:26:01.079Z,17.55
2023-08-03T04:28:47.910Z,17.57
2023-08-03T04:31:34.786Z,17.56
2023-08-03T04:34:21.782Z,17.56
2023-08-03T04:37:08.659Z,17.57
2023-08-03T04:39:55.600Z,17.56
2023-08-03T04:42:42.444Z,17.55
2023-08-03T04:45:29.384Z,17.57
2023-08-03T04:48:16.222Z,17.57
2023-08-03T04:51:03.144Z,17.57
2023-08-03T04:53:50.055Z,17.58
2023-08-03T04:56:37.397Z,17.59
2023-08-03T04:59:24.272Z,17.61
2023-08-03T05:02:11.245Z,17.59
2023-08-03T05:04:58.107Z,17.63
2023-08-03T05:07:44.983Z,17.65
2023-08-03T05:10:31.937Z,17.66
2023-08-03T05:13:19.051Z,17.67
2023-08-03T05:16:06.032Z,17.69
2023-08-03T05:18:53.274Z,17.71
2023-08-03T05:21:40.133Z,17.73
2023-08-03T05:24:27.146Z,17.97
2023-08-03T05:27:14.039Z,19.55
2023-08-03T05:30:00.893Z,19.64
2023-08-03T05:32:48.204Z,19.46
2023-08-03T05:35:35.068Z,19.28
2023-08-03T05:38:21.958Z,19.10
2023-08-03T05:41:15.107Z,18.95
2023-08-03T05:44:02.728Z,18.82
2023-08-03T05:46:49.681Z,18.70
2023-08-03T05:49:36.553Z,18.60
2023-08-03T05:52:23.486Z,18.52
2023-08-03T05:55:14.628Z,18.45
2023-08-03T05:58:01.607Z,18.41
2023-08-03T06:00:49.767Z,18.37
2023-08-03T06:03:42.571Z,18.34
2023-08-03T06:06:30.262Z,18.33
2023-08-03T06:09:23.497Z,18.32
2023-08-03T06:12:14.228Z,18.28
2023-08-03T06:15:01.121Z,18.29
2023-08-03T06:17:48.309Z,18.29
2023-08-03T06:20:35.733Z,18.29
2023-08-03T06:23:28.012Z,18.31
2023-08-03T06:26:17.276Z,18.33
2023-08-03T06:29:06.389Z,18.35
2023-08-03T06:31:53.373Z,18.34
2023-08-03T06:34:40.442Z,18.37
2023-08-03T06:37:28.984Z,18.38
2023-08-03T06:40:15.864Z,18.42
2023-08-03T06:43:03.176Z,18.44
2023-08-03T06:45:50.115Z,18.45
2023-08-03T06:48:37.262Z,18.47
2023-08-03T06:51:24.189Z,18.48
2023-08-03T06:54:11.017Z,18.51
2023-08-03T06:56:58.012Z,18.54
2023-08-03T06:59:44.853Z,18.59
2023-08-03T07:02:31.954Z,18.61
2023-08-03T07:05:18.874Z,18.65
2023-08-03T07:08:05.786Z,18.68
2023-08-03T07:10:52.834Z,18.71
2023-08-03T07:13:39.688Z,18.77
2023-08-03T07:16:27.929Z,18.79
2023-08-03T07:19:17.521Z,18.82
2023-08-03T07:22:05.717Z,18.87
2023-08-03T07:24:52.720Z,18.89
2023-08-03T07:27:42.198Z,18.94
2023-08-03T07:30:32.214Z,18.97
2023-08-03T07:33:19.893Z,19.03
2023-08-03T07:36:07.076Z,19.06
2023-08-03T07:38:53.954Z,19.10
2023-08-03T07:41:40.830Z,19.14
2023-08-03T07:44:49.132Z,19.16
2023-08-03T07:47:34.592Z,19.21
2023-08-03T07:50:21.443Z,19.26
2023-08-03T07:53:08.405Z,19.32
2023-08-03T07:55:55.438Z,19.36
2023-08-03T07:58:42.422Z,19.40
2023-08-03T08:01:29.406Z,19.46
2023-08-03T08:04:18.243Z,19.51
2023-08-03T08:07:05.296Z,19.55
2023-08-03T08:09:53.871Z,19.60
2023-08-03T08:12:40.740Z,19.63
2023-08-03T08:15:29.230Z,19.67
2023-08-03T08:18:16.218Z,19.68
2023-08-03T08:21:05.220Z,19.70
2023-08-03T08:23:52.144Z,19.71
2023-08-03T08:26:39.140Z,19.74
2023-08-03T08:29:26.092Z,19.75
2023-08-03T08:32:12.956Z,19.74
2023-08-03T08:34:59.912Z,19.75
2023-08-03T08:37:46.953Z,19.77
2023-08-03T08:40:40.977Z,19.82
2023-08-03T08:43:29.108Z,19.86
2023-08-03T08:46:16.026Z,19.91
2023-08-03T08:49:03.344Z,19.98
2023-08-03T09:00:21.148Z,20.20
2023-08-03T09:03:08.141Z,20.27
2023-08-03T09:08:56.194Z,20.42
2023-08-03T09:11:43.535Z,20.48
2023-08-03T09:14:31.726Z,20.55
2023-08-03T09:17:23.952Z,20.63
2023-08-03T09:24:35.190Z,20.75
2023-08-03T09:29:33.267Z,20.88
2023-08-03T09:38:26.351Z,21.07
2023-08-03T09:41:13.689Z,21.10
2023-08-03T09:44:01.894Z,21.13
2023-08-03T09:46:50.527Z,21.19
2023-08-03T09:49:37.389Z,21.21
2023-08-03T09:55:24.077Z,21.33
2023-08-03T09:58:15.039Z,21.40
2023-08-03T10:01:05.450Z,21.47
2023-08-03T10:03:59.303Z,21.54
2023-08-03T10:06:47.968Z,21.61
2023-08-03T10:09:39.416Z,21.68
2023-08-03T10:12:34.047Z,21.73
2023-08-03T10:15:21.238Z,21.79
2023-08-03T10:18:08.292Z,21.83
2023-08-03T10:20:55.332Z,21.90
2023-08-03T10:24:13.178Z,21.96
2023-08-03T10:30:10.561Z,22.05
2023-08-03T10:32:57.532Z,22.12
2023-08-03T10:35:45.816Z,22.18
2023-08-03T10:38:32.793Z,22.22
2023-08-03T10:41:23.418Z,22.29
2023-08-03T10:44:10.550Z,22.33
2023-08-03T10:46:59.260Z,22.39
2023-08-03T10:49:46.256Z,22.46
2023-08-03T10:52:33.401Z,22.51
2023-08-03T10:55:22.899Z,22.60
2023-08-03T10:58:09.845Z,22.85
2023-08-03T11:00:56.723Z,23.11
2023-08-03T11:03:43.832Z,23.27
2023-08-03T11:06:30.920Z,23.41
2023-08-03T11:09:18.212Z,23.55
2023-08-03T11:12:07.962Z,23.66
2023-08-03T11:14:56.547Z,23.76
2023-08-03T11:17:47.750Z,23.86
2023-08-03T11:20:41.871Z,23.94
2023-08-03T11:23:32.439Z,24.02
2023-08-03T11:26:19.300Z,24.09
2023-08-03T11:29:08.066Z,24.16
2023-08-03T11:31:55.126Z,24.25
2023-08-03T11:34:42.129Z,24.33
2023-08-03T11:37:31.254Z,24.40
2023-08-03T11:40:19.078Z,24.47
2023-08-03T11:43:06.059Z,24.53
2023-08-03T11:45:56.488Z,24.59
2023-08-03T11:48:46.870Z,24.66
2023-08-03T11:51:38.053Z,24.71
2023-08-03T11:54:25.634Z,24.74
2023-08-03T11:57:31.622Z,24.79
2023-08-03T12:00:19.217Z,24.84
2023-08-03T12:03:06.201Z,24.88
2023-08-03T12:06:06.572Z,24.91
2023-08-03T12:08:55.935Z,24.95
2023-08-03T12:11:42.975Z,24.97
2023-08-03T12:14:30.055Z,25.02
2023-08-03T12:17:17.182Z,25.07
2023-08-03T12:20:04.288Z,25.10
2023-08-03T12:22:51.149Z,25.15
2023-08-03T12:25:42.162Z,25.18
2023-08-03T12:28:29.595Z,25.22
2023-08-03T12:31:16.467Z,25.26
2023-08-03T12:34:03.469Z,25.29
2023-08-03T12:36:50.516Z,25.31
2023-08-03T12:39:37.470Z,25.33
2023-08-03T12:42:24.510Z,25.36
2023-08-03T12:45:11.662Z,25.39
2023-08-03T12:48:01.809Z,25.43
2023-08-03T12:50:48.773Z,25.45
2023-08-03T12:53:38.648Z,25.51
2023-08-03T12:56:25.536Z,25.53
2023-08-03T12:59:12.442Z,25.57
2023-08-03T13:02:00.555Z,25.61
2023-08-03T13:04:52.131Z,25.66
2023-08-03T13:07:39.146Z,25.70
2023-08-03T13:10:26.275Z,25.72
2023-08-03T13:13:13.806Z,25.74
2023-08-03T13:16:00.696Z,25.76
2023-08-03T13:18:49.812Z,25.78
2023-08-03T13:21:36.767Z,25.82
2023-08-03T13:24:23.936Z,25.85
2023-08-03T13:27:14.762Z,25.88
2023-08-03T13:30:01.797Z,25.92
2023-08-03T13:32:48.938Z,25.95
2023-08-03T13:35:36.217Z,25.97
2023-08-03T13:38:23.272Z,25.86
2023-08-03T13:41:10.206Z,25.80
2023-08-03T13:43:57.267Z,25.84
2023-08-03T13:46:44.514Z,25.90
2023-08-03T13:49:33.075Z,25.96
2023-08-03T13:52:19.969Z,26.01
2023-08-03T13:55:07.048Z,26.02
2023-08-03T14:03:35.397Z,26.07
2023-08-03T14:09:15.985Z,26.10
2023-08-03T14:12:04.932Z,26.03
2023-08-03T14:14:51.944Z,26.04
2023-08-03T14:23:21.596Z,26.36
2023-08-03T14:26:08.774Z,26.46
2023-08-03T14:31:45.713Z,26.58
2023-08-03T14:37:22.557Z,26.68
2023-08-03T14:40:09.686Z,26.72
2023-08-03T14:42:57.098Z,26.76
2023-08-03T14:45:53.639Z,26.78
2023-08-03T14:48:40.712Z,26.80
2023-08-03T14:54:17.496Z,26.85
2023-08-03T14:57:06.092Z,26.89
2023-08-03T14:59:53.134Z,26.91
2023-08-03T15:02:40.229Z,26.93
2023-08-03T15:05:30.263Z,26.95
2023-08-03T15:08:17.349Z,26.97
2023-08-03T15:11:04.359Z,26.97
2023-08-03T15:13:59.018Z,27.00
2023-08-03T15:16:46.750Z,27.01
2023-08-03T15:19:40.418Z,27.04
2023-08-03T15:22:29.413Z,27.02
2023-08-03T15:25:17.786Z,27.04
2023-08-03T15:28:10.885Z,27.03
2023-08-03T15:31:00.974Z,27.03
2023-08-03T15:33:51.118Z,27.05
2023-08-03T15:36:44.135Z,27.04
2023-08-03T15:39:32.630Z,27.04
2023-08-03T15:42:22.626Z,27.04
2023-08-03T15:45:16.636Z,27.04
2023-08-03T15:48:43.592Z,27.06
2023-08-03T15:51:18.768Z,27.07
2023-08-03T15:54:10.706Z,27.07
2023-08-03T15:59:50.936Z,27.08
2023-08-03T16:02:37.879Z,27.09
2023-08-03T16:05:26.646Z,27.08
2023-08-03T16:08:13.903Z,27.07
2023-08-03T16:11:01.589Z,27.07
2023-08-03T16:13:48.458Z,27.07
2023-08-03T16:16:35.385Z,27.04
2023-08-03T16:19:22.767Z,27.05
2023-08-03T16:22:09.690Z,27.03
2023-08-03T16:24:56.669Z,27.04
2023-08-03T16:27:43.610Z,27.04
2023-08-03T16:30:32.307Z,27.02
2023-08-03T16:33:19.355Z,27.02
2023-08-03T16:36:16.280Z,27.02
2023-08-03T16:39:03.626Z,27.01
2023-08-03T16:41:50.457Z,26.99
2023-08-03T16:44:37.398Z,26.98
2023-08-03T16:47:24.490Z,26.98
2023-08-03T16:50:14.423Z,26.98
2023-08-03T16:53:01.361Z,26.97
2023-08-03T16:55:48.182Z,26.95
2023-08-03T16:58:35.065Z,26.93
2023-08-03T17:01:21.911Z,26.92
2023-08-03T17:04:08.939Z,26.91
2023-08-03T17:06:55.979Z,26.91
2023-08-03T17:09:43.027Z,26.91
2023-08-03T17:12:30.067Z,26.88
2023-08-03T17:15:17.118Z,26.87
2023-08-03T17:18:04.830Z,26.85
2023-08-03T17:20:52.277Z,26.84
2023-08-03T17:23:39.184Z,26.83
2023-08-03T17:26:26.011Z,26.81
2023-08-03T17:29:13.223Z,26.80
2023-08-03T17:32:00.149Z,26.79
2023-08-03T17:34:47.014Z,26.78
2023-08-03T17:37:35.257Z,26.77
2023-08-03T17:40:22.904Z,26.76
2023-08-03T17:43:09.779Z,26.74
2023-08-03T17:45:56.654Z,26.72
2023-08-03T17:48:44.455Z,26.72
2023-08-03T17:51:31.450Z,26.70
2023-08-03T17:54:19.300Z,26.69
2023-08-03T17:57:06.249Z,26.69
2023-08-03T17:59:53.235Z,26.67
2023-08-03T18:02:40.164Z,26.66
2023-08-03T18:05:28.157Z,26.66
2023-08-03T18:08:15.127Z,26.63
2023-08-03T18:11:03.962Z,26.62
2023-08-03T18:13:52.282Z,26.60
2023-08-03T18:16:39.230Z,26.59
2023-08-03T18:19:26.345Z,26.58
2023-08-03T18:22:13.209Z,26.57
2023-08-03T18:25:01.184Z,26.56
2023-08-03T18:27:49.631Z,26.54
2023-08-03T18:30:36.836Z,26.52
2023-08-03T18:33:23.762Z,26.52
2023-08-03T18:36:16.307Z,26.50
2023-08-03T18:39:03.188Z,26.49
2023-08-03T18:41:50.062Z,26.46
2023-08-03T18:44:37.956Z,26.45
2023-08-03T18:47:24.941Z,26.42
2023-08-03T18:50:11.840Z,26.40
2023-08-03T18:52:58.814Z,26.38
2023-08-03T18:55:45.685Z,26.37
2023-08-03T18:58:35.025Z,26.34
2023-08-03T19:01:22.412Z,26.32
2023-08-03T19:04:09.285Z,26.29
2023-08-03T19:06:56.326Z,26.28
2023-08-03T19:09:43.268Z,26.25
2023-08-03T19:12:30.132Z,26.24
2023-08-03T19:15:18.379Z,26.24
2023-08-03T19:18:06.128Z,26.23
2023-08-03T19:20:53.146Z,26.20
2023-08-03T19:23:40.131Z,26.19
2023-08-03T19:26:27.093Z,26.16
2023-08-03T19:29:17.463Z,26.15
2023-08-03T19:32:06.543Z,26.11
2023-08-03T19:34:53.392Z,26.07
2023-08-03T19:37:40.242Z,26.05
2023-08-03T19:40:27.140Z,26.02
2023-08-03T19:43:14.241Z,25.98
2023-08-03T19:46:01.286Z,25.95
2023-08-03T19:48:48.315Z,25.94
2023-08-03T19:58:14.866Z,25.84
2023-08-03T20:08:53.034Z,25.70
2023-08-03T20:11:39.960Z,25.66
2023-08-03T20:20:07.823Z,25.63
2023-08-03T20:22:54.723Z,25.60
2023-08-03T20:25:41.634Z,25.61
2023-08-03T20:28:28.751Z,25.55
2023-08-03T20:31:15.642Z,25.48
2023-08-03T20:36:52.523Z,25.47
2023-08-03T20:39:39.467Z,25.43
2023-08-03T20:50:58.515Z,25.40
2023-08-03T20:53:45.408Z,25.38
2023-08-03T20:56:32.539Z,25.34
2023-08-03T20:59:19.457Z,25.32
2023-08-03T21:02:06.365Z,25.27
2023-08-03T21:04:53.365Z,25.23
2023-08-03T21:07:40.294Z,25.17
2023-08-03T21:13:17.026Z,25.12
2023-08-03T21:16:11.472Z,25.10
2023-08-03T21:21:48.574Z,25.07
2023-08-03T21:24:35.719Z,25.05
2023-08-03T21:27:24.137Z,25.01
2023-08-03T21:33:03.673Z,24.92
2023-08-03T21:35:50.636Z,24.89
2023-08-03T21:38:37.456Z,24.88
2023-08-03T21:41:24.328Z,24.87
2023-08-03T21:44:11.295Z,24.87
2023-08-03T21:46:58.136Z,24.86
2023-08-03T21:49:45.559Z,24.86
2023-08-03T21:52:32.428Z,24.82
2023-08-03T21:55:19.712Z,24.81
2023-08-03T21:58:10.041Z,24.79
2023-08-03T22:00:56.960Z,24.75
2023-08-03T22:03:44.178Z,24.72
2023-08-03T22:06:31.028Z,24.68
2023-08-03T22:09:17.894Z,24.65
2023-08-03T22:12:05.007Z,24.63
2023-08-03T22:14:51.885Z,24.60
2023-08-03T22:17:39.910Z,24.56
2023-08-03T22:20:27.092Z,24.50
2023-08-03T22:23:13.975Z,24.48
2023-08-03T22:26:01.423Z,24.47
2023-08-03T22:28:49.382Z,24.44
2023-08-03T22:31:36.589Z,24.38
2023-08-03T22:34:23.448Z,24.35
2023-08-03T22:37:10.308Z,24.32
2023-08-03T22:39:57.216Z,24.30
2023-08-03T22:42:44.240Z,24.30
2023-08-03T22:45:31.261Z,24.28
2023-08-03T22:48:18.212Z,24.26
2023-08-03T22:51:05.123Z,24.22
2023-08-03T22:53:51.980Z,24.13
2023-08-03T22:56:38.871Z,24.09
2023-08-03T22:59:25.792Z,24.05
2023-08-03T23:02:12.696Z,24.04
2023-08-03T23:04:59.613Z,24.06
2023-08-03T23:07:46.458Z,24.06
2023-08-03T23:10:33.336Z,24.06
2023-08-03T23:13:22.736Z,24.05
2023-08-03T23:16:10.043Z,24.05
2023-08-03T23:18:56.946Z,24.02
2023-08-03T23:21:44.019Z,23.99
2023-08-03T23:24:30.996Z,23.96
2023-08-03T23:27:17.839Z,23.94
2023-08-03T23:30:05.229Z,23.93
2023-08-03T23:32:52.197Z,23.88
2023-08-03T23:35:39.144Z,23.86
2023-08-03T23:38:26.194Z,23.83
2023-08-03T23:41:13.036Z,23.82
2023-08-03T23:43:59.989Z,23.79
2023-08-03T23:46:46.884Z,23.76
2023-08-03T23:49:33.780Z,23.74
2023-08-03T23:52:20.911Z,23.73
2023-08-03T23:55:10.543Z,23.73
2023-08-03T23:57:57.558Z,23.71
